LYBE/BEG METAR and TAF weather

Enter ICAO airport designator
Station Type Date Time Source
LYBE METAR 2019/06/18 04:30 UTC NOAA

LYBE 180430Z VRB01KT 6000 NSC 19/19 Q1016 NOSIG


Station Type Date Time Source
LYBE Decoded METAR 2019/06/18 04:30 UTC NOAA

Beograd / Surcin, Serbia and Montenegro (LYBE) 44-49N 020-17E 99M
Jun 18, 2019 - 12:30 AM EDT / 2019.06.18 0430 UTC
Wind: Variable at 1 MPH (1 KT):0
Visibility: 3 mile(s):0
Temperature: 66 F (19 C)
Dew Point: 66 F (19 C)
Relative Humidity: 100%
Pressure (altimeter): 30.00 in. Hg (1016 hPa)
ob: LYBE 180430Z VRB01KT 6000 NSC 19/19 Q1016 NOSIG
cycle: 4

Station Type Date Time Source
LYBE TAF 2019/06/17 18:25 UTC NOAA

TAF LYBE 171700Z 1718/1818 26008KT 9999 SCT040 TX28/1814Z TN18/1803Z
TEMPO 1718/1721 VRB14G25KT 4000 TSRA SCT033CB SCT040
TEMPO 1801/1806 3000 BR BKN007
TEMPO 1814/1818 VRB15G25KT 4000 TSRA SCT030CB SCT033

Example: see airport list